sensor_id;sensor_type;location;lat;lon;timestamp;temperature;humidity
7564;DHT22;3823;53.586;10.040;2024-02-04T00:00:15;7.80;1.00
7564;DHT22;3823;53.586;10.040;2024-02-04T00:02:43;7.80;1.00
7564;DHT22;3823;53.586;10.040;2024-02-04T00:05:09;7.70;1.00
7564;DHT22;3823;53.586;10.040;2024-02-04T00:07:34;7.70;1.00
7564;DHT22;3823;53.586;10.040;2024-02-04T00:10:00;7.60;1.00
7564;DHT22;3823;53.586;10.040;2024-02-04T00:12:25;7.60;1.00
7564;DHT22;3823;53.586;10.040;2024-02-04T00:14:52;7.70;1.00
7564;DHT22;3823;53.586;10.040;2024-02-04T00:17:17;7.70;1.00
7564;DHT22;3823;53.586;10.040;2024-02-04T00:19:43;7.70;1.00
7564;DHT22;3823;53.586;10.040;2024-02-04T00:22:09;7.70;1.00
7564;DHT22;3823;53.586;10.040;2024-02-04T00:24:35;7.60;1.00
7564;DHT22;3823;53.586;10.040;2024-02-04T00:27:00;7.60;1.00
7564;DHT22;3823;53.586;10.040;2024-02-04T00:29:26;7.60;1.00
7564;DHT22;3823;53.586;10.040;2024-02-04T00:31:51;7.60;1.00
7564;DHT22;3823;53.586;10.040;2024-02-04T00:34:17;7.50;1.00
7564;DHT22;3823;53.586;10.040;2024-02-04T00:36:45;7.50;1.00
7564;DHT22;3823;53.586;10.040;2024-02-04T00:39:10;7.50;1.00
7564;DHT22;3823;53.586;10.040;2024-02-04T00:41:36;7.50;1.00
7564;DHT22;3823;53.586;10.040;2024-02-04T00:44:02;7.50;1.00
7564;DHT22;3823;53.586;10.040;2024-02-04T00:46:28;7.40;1.00
7564;DHT22;3823;53.586;10.040;2024-02-04T00:48:53;7.50;1.00
7564;DHT22;3823;53.586;10.040;2024-02-04T00:51:19;7.40;1.00
7564;DHT22;3823;53.586;10.040;2024-02-04T00:53:45;7.30;1.00
7564;DHT22;3823;53.586;10.040;2024-02-04T00:56:11;7.30;1.00
7564;DHT22;3823;53.586;10.040;2024-02-04T00:58:38;7.40;1.00
7564;DHT22;3823;53.586;10.040;2024-02-04T01:01:04;7.40;1.00
7564;DHT22;3823;53.586;10.040;2024-02-04T01:03:31;7.40;1.00
7564;DHT22;3823;53.586;10.040;2024-02-04T01:05:57;7.40;1.00
7564;DHT22;3823;53.586;10.040;2024-02-04T01:08:22;7.30;1.00
7564;DHT22;3823;53.586;10.040;2024-02-04T01:10:48;7.40;1.00
7564;DHT22;3823;53.586;10.040;2024-02-04T01:13:16;7.40;1.00
7564;DHT22;3823;53.586;10.040;2024-02-04T01:15:42;7.50;1.00
7564;DHT22;3823;53.586;10.040;2024-02-04T01:18:07;7.40;1.00
7564;DHT22;3823;53.586;10.040;2024-02-04T01:20:33;7.50;1.00
7564;DHT22;3823;53.586;10.040;2024-02-04T01:22:58;7.50;1.00
7564;DHT22;3823;53.586;10.040;2024-02-04T01:25:37;7.50;1.00
7564;DHT22;3823;53.586;10.040;2024-02-04T01:28:03;7.40;1.00
7564;DHT22;3823;53.586;10.040;2024-02-04T01:30:29;7.30;1.00
7564;DHT22;3823;53.586;10.040;2024-02-04T01:32:56;7.30;1.00
7564;DHT22;3823;53.586;10.040;2024-02-04T01:35:22;7.40;1.00
7564;DHT22;3823;53.586;10.040;2024-02-04T01:37:47;7.40;1.00
7564;DHT22;3823;53.586;10.040;2024-02-04T01:40:14;7.50;1.00
7564;DHT22;3823;53.586;10.040;2024-02-04T01:42:40;7.50;1.00
7564;DHT22;3823;53.586;10.040;2024-02-04T01:45:05;7.50;1.00
7564;DHT22;3823;53.586;10.040;2024-02-04T01:47:31;7.60;1.00
7564;DHT22;3823;53.586;10.040;2024-02-04T01:49:57;7.50;1.00
7564;DHT22;3823;53.586;10.040;2024-02-04T01:52:22;7.60;1.00
7564;DHT22;3823;53.586;10.040;2024-02-04T01:54:49;7.50;1.00
7564;DHT22;3823;53.586;10.040;2024-02-04T01:57:16;7.50;1.00
7564;DHT22;3823;53.586;10.040;2024-02-04T01:59:42;7.50;1.00
7564;DHT22;3823;53.586;10.040;2024-02-04T02:02:08;7.50;1.00
7564;DHT22;3823;53.586;10.040;2024-02-04T02:04:34;7.60;1.00
7564;DHT22;3823;53.586;10.040;2024-02-04T02:06:59;7.60;1.00
7564;DHT22;3823;53.586;10.040;2024-02-04T02:09:26;7.60;1.00
7564;DHT22;3823;53.586;10.040;2024-02-04T02:12:13;7.70;1.00
7564;DHT22;3823;53.586;10.040;2024-02-04T02:14:44;7.60;1.00
7564;DHT22;3823;53.586;10.040;2024-02-04T02:17:15;7.60;1.00
7564;DHT22;3823;53.586;10.040;2024-02-04T02:20:02;7.70;1.00
7564;DHT22;3823;53.586;10.040;2024-02-04T02:22:49;7.70;1.00
7564;DHT22;3823;53.586;10.040;2024-02-04T02:25:17;7.60;1.00
7564;DHT22;3823;53.586;10.040;2024-02-04T02:27:49;7.70;1.00
7564;DHT22;3823;53.586;10.040;2024-02-04T02:30:15;7.70;1.00
7564;DHT22;3823;53.586;10.040;2024-02-04T02:32:42;7.70;1.00
7564;DHT22;3823;53.586;10.040;2024-02-04T02:35:08;7.70;1.00
7564;DHT22;3823;53.586;10.040;2024-02-04T02:37:40;7.70;1.00
7564;DHT22;3823;53.586;10.040;2024-02-04T02:40:10;7.70;1.00
7564;DHT22;3823;53.586;10.040;2024-02-04T02:42:38;7.70;1.00
7564;DHT22;3823;53.586;10.040;2024-02-04T02:45:06;7.80;1.00
7564;DHT22;3823;53.586;10.040;2024-02-04T02:47:33;7.80;1.00
7564;DHT22;3823;53.586;10.040;2024-02-04T02:50:00;7.80;1.00
7564;DHT22;3823;53.586;10.040;2024-02-04T02:52:26;7.80;1.00
7564;DHT22;3823;53.586;10.040;2024-02-04T02:54:51;7.80;1.00
7564;DHT22;3823;53.586;10.040;2024-02-04T02:57:17;7.80;1.00
7564;DHT22;3823;53.586;10.040;2024-02-04T02:59:42;7.80;1.00
7564;DHT22;3823;53.586;10.040;2024-02-04T03:02:08;7.90;1.00
7564;DHT22;3823;53.586;10.040;2024-02-04T03:04:34;7.90;1.00
7564;DHT22;3823;53.586;10.040;2024-02-04T03:06:59;7.90;1.00
7564;DHT22;3823;53.586;10.040;2024-02-04T03:09:25;7.90;1.00
7564;DHT22;3823;53.586;10.040;2024-02-04T03:11:50;7.90;1.00
7564;DHT22;3823;53.586;10.040;2024-02-04T03:14:16;7.80;1.00
7564;DHT22;3823;53.586;10.040;2024-02-04T03:16:46;7.90;1.00
7564;DHT22;3823;53.586;10.040;2024-02-04T03:19:12;7.90;1.00
7564;DHT22;3823;53.586;10.040;2024-02-04T03:21:37;7.80;1.00
7564;DHT22;3823;53.586;10.040;2024-02-04T03:24:03;7.80;1.00
7564;DHT22;3823;53.586;10.040;2024-02-04T03:26:28;7.80;1.00
7564;DHT22;3823;53.586;10.040;2024-02-04T03:28:54;7.80;1.00
7564;DHT22;3823;53.586;10.040;2024-02-04T03:31:21;7.70;1.00
7564;DHT22;3823;53.586;10.040;2024-02-04T03:33:47;7.70;1.00
7564;DHT22;3823;53.586;10.040;2024-02-04T03:36:15;7.70;1.00
7564;DHT22;3823;53.586;10.040;2024-02-04T03:38:40;7.70;1.00
7564;DHT22;3823;53.586;10.040;2024-02-04T03:41:06;7.70;1.00
7564;DHT22;3823;53.586;10.040;2024-02-04T03:43:31;7.60;1.00
7564;DHT22;3823;53.586;10.040;2024-02-04T03:45:57;7.60;1.00
7564;DHT22;3823;53.586;10.040;2024-02-04T03:48:22;7.50;1.00
7564;DHT22;3823;53.586;10.040;2024-02-04T03:50:48;7.60;1.00
7564;DHT22;3823;53.586;10.040;2024-02-04T03:53:13;7.50;1.00
7564;DHT22;3823;53.586;10.040;2024-02-04T03:55:39;7.60;1.00
7564;DHT22;3823;53.586;10.040;2024-02-04T03:58:04;7.60;1.00
7564;DHT22;3823;53.586;10.040;2024-02-04T04:00:30;7.60;1.00
7564;DHT22;3823;53.586;10.040;2024-02-04T04:02:55;7.50;1.00
7564;DHT22;3823;53.586;10.040;2024-02-04T04:07:50;7.60;1.00
7564;DHT22;3823;53.586;10.040;2024-02-04T04:10:16;7.60;1.00
7564;DHT22;3823;53.586;10.040;2024-02-04T04:12:41;7.60;1.00
7564;DHT22;3823;53.586;10.040;2024-02-04T04:15:07;7.50;1.00
7564;DHT22;3823;53.586;10.040;2024-02-04T04:17:33;7.50;1.00
7564;DHT22;3823;53.586;10.040;2024-02-04T04:19:58;7.50;1.00
7564;DHT22;3823;53.586;10.040;2024-02-04T04:22:24;7.50;1.00
7564;DHT22;3823;53.586;10.040;2024-02-04T04:24:49;7.50;1.00
7564;DHT22;3823;53.586;10.040;2024-02-04T04:27:15;7.40;1.00
7564;DHT22;3823;53.586;10.040;2024-02-04T04:29:40;7.40;1.00
7564;DHT22;3823;53.586;10.040;2024-02-04T04:32:06;7.40;1.00
7564;DHT22;3823;53.586;10.040;2024-02-04T04:34:31;7.30;1.00
7564;DHT22;3823;53.586;10.040;2024-02-04T04:36:57;7.30;1.00
7564;DHT22;3823;53.586;10.040;2024-02-04T04:39:22;7.40;1.00
7564;DHT22;3823;53.586;10.040;2024-02-04T04:41:48;7.40;1.00
7564;DHT22;3823;53.586;10.040;2024-02-04T04:44:13;7.50;1.00
7564;DHT22;3823;53.586;10.040;2024-02-04T04:46:39;7.50;1.00
7564;DHT22;3823;53.586;10.040;2024-02-04T04:49:05;7.40;1.00
7564;DHT22;3823;53.586;10.040;2024-02-04T04:51:31;7.40;1.00
7564;DHT22;3823;53.586;10.040;2024-02-04T04:53:56;7.30;1.00
7564;DHT22;3823;53.586;10.040;2024-02-04T04:56:22;7.20;1.00
7564;DHT22;3823;53.586;10.040;2024-02-04T04:58:47;7.20;1.00
7564;DHT22;3823;53.586;10.040;2024-02-04T05:01:13;7.10;1.00
7564;DHT22;3823;53.586;10.040;2024-02-04T05:03:40;7.20;1.00
7564;DHT22;3823;53.586;10.040;2024-02-04T05:06:05;7.20;1.00
7564;DHT22;3823;53.586;10.040;2024-02-04T05:08:31;7.10;1.00
7564;DHT22;3823;53.586;10.040;2024-02-04T05:10:56;7.20;1.00
7564;DHT22;3823;53.586;10.040;2024-02-04T05:13:22;7.20;1.00
7564;DHT22;3823;53.586;10.040;2024-02-04T05:15:47;7.10;1.00
7564;DHT22;3823;53.586;10.040;2024-02-04T05:18:13;7.10;1.00
7564;DHT22;3823;53.586;10.040;2024-02-04T05:20:38;7.10;1.00
7564;DHT22;3823;53.586;10.040;2024-02-04T05:23:04;7.10;1.00
7564;DHT22;3823;53.586;10.040;2024-02-04T05:25:29;7.00;1.00
7564;DHT22;3823;53.586;10.040;2024-02-04T05:27:55;7.00;1.00
7564;DHT22;3823;53.586;10.040;2024-02-04T05:30:20;7.10;1.00
7564;DHT22;3823;53.586;10.040;2024-02-04T05:32:46;7.10;1.00
7564;DHT22;3823;53.586;10.040;2024-02-04T05:35:11;7.10;1.00
7564;DHT22;3823;53.586;10.040;2024-02-04T05:37:37;7.10;1.00
7564;DHT22;3823;53.586;10.040;2024-02-04T05:40:03;7.10;1.00
7564;DHT22;3823;53.586;10.040;2024-02-04T05:42:30;7.10;1.00
7564;DHT22;3823;53.586;10.040;2024-02-04T05:44:57;7.10;1.00
7564;DHT22;3823;53.586;10.040;2024-02-04T05:47:23;7.10;1.00
7564;DHT22;3823;53.586;10.040;2024-02-04T05:49:48;7.10;1.00
7564;DHT22;3823;53.586;10.040;2024-02-04T05:52:14;7.00;1.00
7564;DHT22;3823;53.586;10.040;2024-02-04T05:54:40;7.00;1.00
7564;DHT22;3823;53.586;10.040;2024-02-04T05:57:06;7.00;1.00
7564;DHT22;3823;53.586;10.040;2024-02-04T05:59:33;7.00;1.00
7564;DHT22;3823;53.586;10.040;2024-02-04T06:01:59;7.00;1.00
7564;DHT22;3823;53.586;10.040;2024-02-04T06:04:24;7.00;1.00
7564;DHT22;3823;53.586;10.040;2024-02-04T06:06:50;7.00;1.00
7564;DHT22;3823;53.586;10.040;2024-02-04T06:09:15;7.10;1.00
7564;DHT22;3823;53.586;10.040;2024-02-04T06:11:45;7.00;1.00
7564;DHT22;3823;53.586;10.040;2024-02-04T06:14:11;7.00;1.00
7564;DHT22;3823;53.586;10.040;2024-02-04T06:16:36;7.10;1.00
7564;DHT22;3823;53.586;10.040;2024-02-04T06:19:02;7.00;1.00
7564;DHT22;3823;53.586;10.040;2024-02-04T06:21:28;7.00;1.00
7564;DHT22;3823;53.586;10.040;2024-02-04T06:23:53;7.00;1.00
7564;DHT22;3823;53.586;10.040;2024-02-04T06:26:19;7.00;1.00
7564;DHT22;3823;53.586;10.040;2024-02-04T06:28:44;7.00;1.00
7564;DHT22;3823;53.586;10.040;2024-02-04T06:31:12;7.00;1.00
7564;DHT22;3823;53.586;10.040;2024-02-04T06:33:38;7.00;1.00
7564;DHT22;3823;53.586;10.040;2024-02-04T06:36:09;7.10;1.00
7564;DHT22;3823;53.586;10.040;2024-02-04T06:38:35;7.10;1.00
7564;DHT22;3823;53.586;10.040;2024-02-04T06:41:01;7.10;1.00
7564;DHT22;3823;53.586;10.040;2024-02-04T06:43:26;7.10;1.00
7564;DHT22;3823;53.586;10.040;2024-02-04T06:45:52;7.10;1.00
7564;DHT22;3823;53.586;10.040;2024-02-04T06:48:19;7.10;1.00
7564;DHT22;3823;53.586;10.040;2024-02-04T06:50:45;7.00;1.00
7564;DHT22;3823;53.586;10.040;2024-02-04T06:53:15;7.00;1.00
7564;DHT22;3823;53.586;10.040;2024-02-04T06:55:40;7.10;1.00
7564;DHT22;3823;53.586;10.040;2024-02-04T06:58:06;7.10;1.00
7564;DHT22;3823;53.586;10.040;2024-02-04T07:00:31;7.00;1.00
7564;DHT22;3823;53.586;10.040;2024-02-04T07:02:57;7.10;1.00
7564;DHT22;3823;53.586;10.040;2024-02-04T07:05:23;7.00;1.00
7564;DHT22;3823;53.586;10.040;2024-02-04T07:07:49;7.00;1.00
7564;DHT22;3823;53.586;10.040;2024-02-04T07:10:15;7.00;1.00
7564;DHT22;3823;53.586;10.040;2024-02-04T07:12:41;7.10;1.00
7564;DHT22;3823;53.586;10.040;2024-02-04T07:15:06;7.10;1.00
7564;DHT22;3823;53.586;10.040;2024-02-04T07:17:33;7.10;1.00
7564;DHT22;3823;53.586;10.040;2024-02-04T07:19:59;7.10;1.00
7564;DHT22;3823;53.586;10.040;2024-02-04T07:22:24;7.10;1.00
7564;DHT22;3823;53.586;10.040;2024-02-04T07:24:50;7.00;1.00
7564;DHT22;3823;53.586;10.040;2024-02-04T07:27:15;7.10;1.00
7564;DHT22;3823;53.586;10.040;2024-02-04T07:29:41;7.10;1.00
7564;DHT22;3823;53.586;10.040;2024-02-04T07:32:07;7.10;1.00
7564;DHT22;3823;53.586;10.040;2024-02-04T07:34:32;7.00;1.00
7564;DHT22;3823;53.586;10.040;2024-02-04T07:36:58;7.00;1.00
7564;DHT22;3823;53.586;10.040;2024-02-04T07:39:23;7.00;1.00
7564;DHT22;3823;53.586;10.040;2024-02-04T07:41:49;7.00;1.00
7564;DHT22;3823;53.586;10.040;2024-02-04T07:44:14;7.10;1.00
7564;DHT22;3823;53.586;10.040;2024-02-04T07:46:40;7.00;1.00
7564;DHT22;3823;53.586;10.040;2024-02-04T07:49:06;7.10;1.00
7564;DHT22;3823;53.586;10.040;2024-02-04T07:51:31;7.10;1.00
7564;DHT22;3823;53.586;10.040;2024-02-04T07:53:57;7.10;1.00
7564;DHT22;3823;53.586;10.040;2024-02-04T07:56:22;7.10;1.00
7564;DHT22;3823;53.586;10.040;2024-02-04T07:58:48;7.10;1.00
7564;DHT22;3823;53.586;10.040;2024-02-04T08:01:14;7.10;1.00
7564;DHT22;3823;53.586;10.040;2024-02-04T08:03:39;7.20;1.00
7564;DHT22;3823;53.586;10.040;2024-02-04T08:06:05;7.20;1.00
7564;DHT22;3823;53.586;10.040;2024-02-04T08:08:31;7.10;1.00
7564;DHT22;3823;53.586;10.040;2024-02-04T08:10:57;7.10;1.00
7564;DHT22;3823;53.586;10.040;2024-02-04T08:13:22;7.20;1.00
7564;DHT22;3823;53.586;10.040;2024-02-04T08:15:48;7.30;1.00
7564;DHT22;3823;53.586;10.040;2024-02-04T08:18:13;7.30;1.00
7564;DHT22;3823;53.586;10.040;2024-02-04T08:20:39;7.20;1.00
7564;DHT22;3823;53.586;10.040;2024-02-04T08:23:04;7.30;1.00
7564;DHT22;3823;53.586;10.040;2024-02-04T08:25:30;7.30;1.00
7564;DHT22;3823;53.586;10.040;2024-02-04T08:27:56;7.30;1.00
7564;DHT22;3823;53.586;10.040;2024-02-04T08:30:21;7.30;1.00
7564;DHT22;3823;53.586;10.040;2024-02-04T08:32:47;7.40;1.00
7564;DHT22;3823;53.586;10.040;2024-02-04T08:35:12;7.30;1.00
7564;DHT22;3823;53.586;10.040;2024-02-04T08:37:38;7.30;1.00
7564;DHT22;3823;53.586;10.040;2024-02-04T08:40:06;7.40;1.00
7564;DHT22;3823;53.586;10.040;2024-02-04T08:42:31;7.40;1.00
7564;DHT22;3823;53.586;10.040;2024-02-04T08:44:57;7.50;1.00
7564;DHT22;3823;53.586;10.040;2024-02-04T08:47:22;7.50;1.00
7564;DHT22;3823;53.586;10.040;2024-02-04T08:49:48;7.60;1.00
7564;DHT22;3823;53.586;10.040;2024-02-04T08:52:13;7.60;1.00
7564;DHT22;3823;53.586;10.040;2024-02-04T08:54:39;7.70;1.00
7564;DHT22;3823;53.586;10.040;2024-02-04T08:57:05;7.70;1.00
7564;DHT22;3823;53.586;10.040;2024-02-04T08:59:30;7.70;1.00
7564;DHT22;3823;53.586;10.040;2024-02-04T09:01:56;7.60;1.00
7564;DHT22;3823;53.586;10.040;2024-02-04T09:04:21;7.60;1.00
7564;DHT22;3823;53.586;10.040;2024-02-04T09:06:47;7.70;1.00
7564;DHT22;3823;53.586;10.040;2024-02-04T09:09:12;7.70;1.00
7564;DHT22;3823;53.586;10.040;2024-02-04T09:11:38;7.60;1.00
7564;DHT22;3823;53.586;10.040;2024-02-04T09:14:03;7.70;1.00
7564;DHT22;3823;53.586;10.040;2024-02-04T09:16:29;7.70;1.00
7564;DHT22;3823;53.586;10.040;2024-02-04T09:18:55;7.70;1.00
7564;DHT22;3823;53.586;10.040;2024-02-04T09:21:20;7.70;1.00
7564;DHT22;3823;53.586;10.040;2024-02-04T09:23:47;7.60;1.00
7564;DHT22;3823;53.586;10.040;2024-02-04T09:26:13;7.60;1.00
7564;DHT22;3823;53.586;10.040;2024-02-04T09:28:38;7.70;1.00
7564;DHT22;3823;53.586;10.040;2024-02-04T09:31:04;7.70;1.00
7564;DHT22;3823;53.586;10.040;2024-02-04T09:33:30;7.70;1.00
7564;DHT22;3823;53.586;10.040;2024-02-04T09:35:55;7.80;1.00
7564;DHT22;3823;53.586;10.040;2024-02-04T09:38:21;7.80;1.00
7564;DHT22;3823;53.586;10.040;2024-02-04T09:40:46;7.70;1.00
7564;DHT22;3823;53.586;10.040;2024-02-04T09:43:13;7.70;1.00
7564;DHT22;3823;53.586;10.040;2024-02-04T09:45:39;7.80;1.00
7564;DHT22;3823;53.586;10.040;2024-02-04T09:48:06;7.80;1.00
7564;DHT22;3823;53.586;10.040;2024-02-04T09:50:33;7.80;1.00
7564;DHT22;3823;53.586;10.040;2024-02-04T09:52:59;7.80;1.00
7564;DHT22;3823;53.586;10.040;2024-02-04T09:55:29;7.90;1.00
7564;DHT22;3823;53.586;10.040;2024-02-04T09:57:55;7.90;1.00
7564;DHT22;3823;53.586;10.040;2024-02-04T10:00:21;7.90;1.00
7564;DHT22;3823;53.586;10.040;2024-02-04T10:02:50;7.90;1.00
7564;DHT22;3823;53.586;10.040;2024-02-04T10:05:16;7.90;1.00
7564;DHT22;3823;53.586;10.040;2024-02-04T10:07:41;8.00;1.00
7564;DHT22;3823;53.586;10.040;2024-02-04T10:10:08;7.90;1.00
7564;DHT22;3823;53.586;10.040;2024-02-04T10:12:33;8.00;1.00
7564;DHT22;3823;53.586;10.040;2024-02-04T10:15:01;7.90;1.00
7564;DHT22;3823;53.586;10.040;2024-02-04T10:17:27;8.00;1.00
7564;DHT22;3823;53.586;10.040;2024-02-04T10:19:53;8.00;1.00
7564;DHT22;3823;53.586;10.040;2024-02-04T10:22:18;7.90;1.00
7564;DHT22;3823;53.586;10.040;2024-02-04T10:24:44;8.00;1.00
7564;DHT22;3823;53.586;10.040;2024-02-04T10:27:12;8.00;1.00
7564;DHT22;3823;53.586;10.040;2024-02-04T10:29:37;8.00;1.00
7564;DHT22;3823;53.586;10.040;2024-02-04T10:32:03;8.00;1.00
7564;DHT22;3823;53.586;10.040;2024-02-04T10:34:29;7.90;1.00
7564;DHT22;3823;53.586;10.040;2024-02-04T10:36:56;8.00;1.00
7564;DHT22;3823;53.586;10.040;2024-02-04T10:39:22;8.10;1.00
7564;DHT22;3823;53.586;10.040;2024-02-04T10:41:52;8.10;1.00
7564;DHT22;3823;53.586;10.040;2024-02-04T10:44:21;8.10;1.00
7564;DHT22;3823;53.586;10.040;2024-02-04T10:46:47;8.20;1.00
7564;DHT22;3823;53.586;10.040;2024-02-04T10:49:15;8.20;1.00
7564;DHT22;3823;53.586;10.040;2024-02-04T10:51:42;8.10;1.00
7564;DHT22;3823;53.586;10.040;2024-02-04T10:54:08;8.10;1.00
7564;DHT22;3823;53.586;10.040;2024-02-04T10:56:40;8.20;1.00
7564;DHT22;3823;53.586;10.040;2024-02-04T10:59:09;8.20;1.00
7564;DHT22;3823;53.586;10.040;2024-02-04T11:01:40;8.20;1.00
7564;DHT22;3823;53.586;10.040;2024-02-04T11:04:10;8.20;1.00
7564;DHT22;3823;53.586;10.040;2024-02-04T11:06:40;8.30;1.00
7564;DHT22;3823;53.586;10.040;2024-02-04T11:09:06;8.30;1.00
7564;DHT22;3823;53.586;10.040;2024-02-04T11:11:34;8.30;1.00
7564;DHT22;3823;53.586;10.040;2024-02-04T11:14:02;8.30;1.00
7564;DHT22;3823;53.586;10.040;2024-02-04T11:24:41;8.40;1.00
7564;DHT22;3823;53.586;10.040;2024-02-04T11:27:09;8.40;1.00
7564;DHT22;3823;53.586;10.040;2024-02-04T11:29:36;8.40;1.00
7564;DHT22;3823;53.586;10.040;2024-02-04T11:32:01;8.40;99.90
7564;DHT22;3823;53.586;10.040;2024-02-04T11:34:28;8.40;1.00
7564;DHT22;3823;53.586;10.040;2024-02-04T11:36:54;8.50;1.00
7564;DHT22;3823;53.586;10.040;2024-02-04T11:39:20;8.50;99.90
7564;DHT22;3823;53.586;10.040;2024-02-04T11:41:48;8.50;99.90
7564;DHT22;3823;53.586;10.040;2024-02-04T11:44:21;8.60;99.90
7564;DHT22;3823;53.586;10.040;2024-02-04T11:46:48;8.60;99.90
7564;DHT22;3823;53.586;10.040;2024-02-04T11:49:17;8.60;99.90
7564;DHT22;3823;53.586;10.040;2024-02-04T11:51:46;8.60;99.90
7564;DHT22;3823;53.586;10.040;2024-02-04T11:54:16;8.60;99.90
7564;DHT22;3823;53.586;10.040;2024-02-04T11:56:43;8.70;99.90
7564;DHT22;3823;53.586;10.040;2024-02-04T11:59:09;8.70;99.90
7564;DHT22;3823;53.586;10.040;2024-02-04T12:01:36;8.60;99.90
7564;DHT22;3823;53.586;10.040;2024-02-04T12:04:16;8.70;1.00
7564;DHT22;3823;53.586;10.040;2024-02-04T12:06:42;8.70;99.90
7564;DHT22;3823;53.586;10.040;2024-02-04T12:09:11;8.80;99.90
7564;DHT22;3823;53.586;10.040;2024-02-04T12:11:38;8.90;99.90
7564;DHT22;3823;53.586;10.040;2024-02-04T12:14:04;8.80;99.90
7564;DHT22;3823;53.586;10.040;2024-02-04T12:16:31;8.80;99.90
7564;DHT22;3823;53.586;10.040;2024-02-04T12:19:04;8.80;99.90
7564;DHT22;3823;53.586;10.040;2024-02-04T12:21:31;8.90;99.90
7564;DHT22;3823;53.586;10.040;2024-02-04T12:23:57;9.00;99.90
7564;DHT22;3823;53.586;10.040;2024-02-04T12:26:23;9.00;99.90
7564;DHT22;3823;53.586;10.040;2024-02-04T12:28:50;9.00;99.90
7564;DHT22;3823;53.586;10.040;2024-02-04T12:31:19;9.00;99.90
7564;DHT22;3823;53.586;10.040;2024-02-04T12:33:56;9.00;99.90
7564;DHT22;3823;53.586;10.040;2024-02-04T12:36:32;9.10;99.90
7564;DHT22;3823;53.586;10.040;2024-02-04T12:38:59;9.10;99.90
7564;DHT22;3823;53.586;10.040;2024-02-04T12:41:26;9.00;99.90
7564;DHT22;3823;53.586;10.040;2024-02-04T12:43:54;9.00;99.90
7564;DHT22;3823;53.586;10.040;2024-02-04T12:46:21;9.00;99.90
7564;DHT22;3823;53.586;10.040;2024-02-04T12:48:57;9.00;99.90
7564;DHT22;3823;53.586;10.040;2024-02-04T12:51:33;9.00;99.90
7564;DHT22;3823;53.586;10.040;2024-02-04T12:54:05;9.10;99.90
7564;DHT22;3823;53.586;10.040;2024-02-04T12:56:48;9.10;99.90
7564;DHT22;3823;53.586;10.040;2024-02-04T12:59:31;9.00;99.90
7564;DHT22;3823;53.586;10.040;2024-02-04T13:02:01;9.10;99.90
7564;DHT22;3823;53.586;10.040;2024-02-04T13:04:35;9.10;99.90
7564;DHT22;3823;53.586;10.040;2024-02-04T13:07:02;9.00;99.90
7564;DHT22;3823;53.586;10.040;2024-02-04T13:09:31;9.00;99.90
7564;DHT22;3823;53.586;10.040;2024-02-04T13:12:07;9.00;99.90
7564;DHT22;3823;53.586;10.040;2024-02-04T13:14:34;9.00;99.90
7564;DHT22;3823;53.586;10.040;2024-02-04T13:16:59;9.00;99.90
7564;DHT22;3823;53.586;10.040;2024-02-04T13:19:35;9.00;99.90
7564;DHT22;3823;53.586;10.040;2024-02-04T13:22:02;9.00;99.90
7564;DHT22;3823;53.586;10.040;2024-02-04T13:24:29;9.10;99.90
7564;DHT22;3823;53.586;10.040;2024-02-04T13:26:54;9.10;99.90
7564;DHT22;3823;53.586;10.040;2024-02-04T13:29:20;9.10;99.90
7564;DHT22;3823;53.586;10.040;2024-02-04T13:31:45;9.10;99.90
7564;DHT22;3823;53.586;10.040;2024-02-04T13:34:11;9.10;99.90
7564;DHT22;3823;53.586;10.040;2024-02-04T13:36:36;9.20;99.90
7564;DHT22;3823;53.586;10.040;2024-02-04T13:39:02;9.20;99.90
7564;DHT22;3823;53.586;10.040;2024-02-04T13:41:28;9.10;99.90
7564;DHT22;3823;53.586;10.040;2024-02-04T13:43:53;9.10;99.90
7564;DHT22;3823;53.586;10.040;2024-02-04T13:46:19;9.10;99.90
7564;DHT22;3823;53.586;10.040;2024-02-04T13:48:45;9.10;99.90
7564;DHT22;3823;53.586;10.040;2024-02-04T13:51:11;9.10;99.90
7564;DHT22;3823;53.586;10.040;2024-02-04T13:53:36;9.10;99.90
7564;DHT22;3823;53.586;10.040;2024-02-04T13:56:02;9.10;99.90
7564;DHT22;3823;53.586;10.040;2024-02-04T13:58:27;9.20;99.90
7564;DHT22;3823;53.586;10.040;2024-02-04T14:00:53;9.20;99.90
7564;DHT22;3823;53.586;10.040;2024-02-04T14:03:19;9.20;99.90
7564;DHT22;3823;53.586;10.040;2024-02-04T14:05:44;9.20;99.90
7564;DHT22;3823;53.586;10.040;2024-02-04T14:08:10;9.10;99.90
7564;DHT22;3823;53.586;10.040;2024-02-04T14:10:36;9.00;99.90
7564;DHT22;3823;53.586;10.040;2024-02-04T14:13:02;9.00;99.90
7564;DHT22;3823;53.586;10.040;2024-02-04T14:15:27;9.00;99.90
7564;DHT22;3823;53.586;10.040;2024-02-04T14:17:54;9.00;99.90
7564;DHT22;3823;53.586;10.040;2024-02-04T14:20:19;9.10;99.90
7564;DHT22;3823;53.586;10.040;2024-02-04T14:22:45;9.10;99.90
7564;DHT22;3823;53.586;10.040;2024-02-04T14:25:10;9.10;99.90
7564;DHT22;3823;53.586;10.040;2024-02-04T14:27:38;9.10;99.90
7564;DHT22;3823;53.586;10.040;2024-02-04T14:30:04;9.00;99.90
7564;DHT22;3823;53.586;10.040;2024-02-04T14:32:32;9.10;99.90
7564;DHT22;3823;53.586;10.040;2024-02-04T14:34:57;9.00;99.90
7564;DHT22;3823;53.586;10.040;2024-02-04T14:37:23;9.00;99.90
7564;DHT22;3823;53.586;10.040;2024-02-04T14:39:49;9.00;99.90
7564;DHT22;3823;53.586;10.040;2024-02-04T14:42:15;8.90;99.90
7564;DHT22;3823;53.586;10.040;2024-02-04T14:44:41;9.00;99.90
7564;DHT22;3823;53.586;10.040;2024-02-04T14:47:07;8.90;99.90
7564;DHT22;3823;53.586;10.040;2024-02-04T14:49:32;9.00;99.90
7564;DHT22;3823;53.586;10.040;2024-02-04T14:51:58;9.00;99.90
7564;DHT22;3823;53.586;10.040;2024-02-04T14:54:23;9.00;99.90
7564;DHT22;3823;53.586;10.040;2024-02-04T14:56:49;8.90;1.00
7564;DHT22;3823;53.586;10.040;2024-02-04T14:59:16;8.90;1.00
7564;DHT22;3823;53.586;10.040;2024-02-04T15:01:45;8.90;1.00
7564;DHT22;3823;53.586;10.040;2024-02-04T15:04:11;8.90;1.00
7564;DHT22;3823;53.586;10.040;2024-02-04T15:06:39;9.00;1.00
7564;DHT22;3823;53.586;10.040;2024-02-04T15:09:05;8.90;1.00
7564;DHT22;3823;53.586;10.040;2024-02-04T15:11:31;8.90;1.00
7564;DHT22;3823;53.586;10.040;2024-02-04T15:13:57;8.90;1.00
7564;DHT22;3823;53.586;10.040;2024-02-04T15:16:23;9.00;1.00
7564;DHT22;3823;53.586;10.040;2024-02-04T15:18:49;8.80;1.00
7564;DHT22;3823;53.586;10.040;2024-02-04T15:21:15;8.80;1.00
7564;DHT22;3823;53.586;10.040;2024-02-04T15:23:41;8.80;1.00
7564;DHT22;3823;53.586;10.040;2024-02-04T15:26:07;8.80;1.00
7564;DHT22;3823;53.586;10.040;2024-02-04T15:28:35;8.90;1.00
7564;DHT22;3823;53.586;10.040;2024-02-04T15:31:01;8.80;1.00
7564;DHT22;3823;53.586;10.040;2024-02-04T15:33:27;8.80;1.00
7564;DHT22;3823;53.586;10.040;2024-02-04T15:35:53;8.70;1.00
7564;DHT22;3823;53.586;10.040;2024-02-04T15:38:19;8.80;1.00
7564;DHT22;3823;53.586;10.040;2024-02-04T15:40:45;8.80;1.00
7564;DHT22;3823;53.586;10.040;2024-02-04T15:43:10;8.70;1.00
7564;DHT22;3823;53.586;10.040;2024-02-04T15:45:36;8.70;1.00
7564;DHT22;3823;53.586;10.040;2024-02-04T15:48:03;8.70;1.00
7564;DHT22;3823;53.586;10.040;2024-02-04T15:50:30;8.70;1.00
7564;DHT22;3823;53.586;10.040;2024-02-04T15:52:56;8.70;1.00
7564;DHT22;3823;53.586;10.040;2024-02-04T15:55:22;8.70;1.00
7564;DHT22;3823;53.586;10.040;2024-02-04T15:57:52;8.60;1.00
7564;DHT22;3823;53.586;10.040;2024-02-04T16:00:21;8.50;1.00
7564;DHT22;3823;53.586;10.040;2024-02-04T16:02:54;8.50;1.00
7564;DHT22;3823;53.586;10.040;2024-02-04T16:05:20;8.40;1.00
7564;DHT22;3823;53.586;10.040;2024-02-04T16:07:47;8.40;1.00
7564;DHT22;3823;53.586;10.040;2024-02-04T16:10:17;8.30;1.00
7564;DHT22;3823;53.586;10.040;2024-02-04T16:12:52;8.30;1.00
7564;DHT22;3823;53.586;10.040;2024-02-04T16:15:21;8.20;1.00
7564;DHT22;3823;53.586;10.040;2024-02-04T16:17:48;8.20;1.00
7564;DHT22;3823;53.586;10.040;2024-02-04T16:20:14;8.20;1.00